Philadelphia, Pennsylvania
Traffic Map
Current Weather Conditions
Philadelphia, Pennsylvania
Broken Clouds
Broken Clouds
21°
Feels Like: 21°
Wind Chill: 21° Ceiling: 10000
Heat Index: 21° Visibility: 10mi
Dew Point: 16° Wind: 3mph
Humidity: 75% Direction: 160° (SSE)
Pressure: 29.94in Gusts: 0mph
Raw Report DataKPHL 300754Z 16003KT 10SM BKN100 21/16 A2994 RMK AO2 SLP137 T02060161
Traffic Incident Summary
Active as of:
Severity:
Category:
InformationThere was an issue retrieving the traffic information for this location. Please try a different location or try again shortly.
Advertisements
Track Severe Weather on mobile